createdAt,value
2023-05-24T00:02:29.270Z,22.10
2023-05-24T00:04:56.349Z,22.10
2023-05-24T00:07:23.346Z,22.10
2023-05-24T00:09:50.488Z,22.10
2023-05-24T00:12:17.617Z,22.10
2023-05-24T00:14:44.730Z,22.10
2023-05-24T00:17:12.877Z,22.10
2023-05-24T00:19:40.259Z,22.10
2023-05-24T00:22:07.255Z,22.60
2023-05-24T00:24:34.270Z,22.10
2023-05-24T00:27:01.361Z,22.10
2023-05-24T00:29:30.209Z,22.10
2023-05-24T00:31:58.677Z,22.10
2023-05-24T00:34:25.688Z,22.10
2023-05-24T00:36:52.676Z,22.20
2023-05-24T00:39:19.641Z,22.10
2023-05-24T00:41:46.840Z,22.20
2023-05-24T00:44:13.912Z,22.10
2023-05-24T00:46:41.689Z,23.20
2023-05-24T00:49:09.592Z,23.10
2023-05-24T00:51:38.512Z,23.60
2023-05-24T00:54:06.908Z,23.50
2023-05-24T00:56:34.359Z,23.20
2023-05-24T00:59:02.063Z,23.70
2023-05-24T01:01:31.511Z,24.00
2023-05-24T01:03:59.871Z,24.40
2023-05-24T01:06:28.552Z,24.20
2023-05-24T01:09:01.215Z,24.50
2023-05-24T01:11:55.141Z,25.40
2023-05-24T01:14:46.863Z,26.20
2023-05-24T01:17:39.687Z,26.40
2023-05-24T01:20:12.240Z,25.80
2023-05-24T01:22:44.920Z,25.40
2023-05-24T01:25:37.395Z,26.20
2023-05-24T01:28:05.348Z,26.60
2023-05-24T01:30:33.384Z,26.60
2023-05-24T01:33:00.783Z,26.60
2023-05-24T01:35:27.887Z,26.40
2023-05-24T01:37:54.763Z,26.20
2023-05-24T01:40:21.971Z,25.50
2023-05-24T01:42:57.968Z,24.90
2023-05-24T01:45:48.526Z,24.60
2023-05-24T01:48:48.430Z,24.60
2023-05-24T01:51:18.828Z,24.90
2023-05-24T01:53:49.006Z,25.70
2023-05-24T01:56:17.422Z,26.00
2023-05-24T01:58:46.728Z,26.40
2023-05-24T02:01:14.415Z,26.30
2023-05-24T02:03:41.525Z,26.00
2023-05-24T02:06:08.704Z,25.80
2023-05-24T02:08:35.594Z,25.40
2023-05-24T02:11:02.804Z,24.90
2023-05-24T02:13:29.672Z,25.90
2023-05-24T02:15:56.640Z,26.40
2023-05-24T02:18:23.441Z,26.40
2023-05-24T02:20:50.918Z,26.00
2023-05-24T02:23:18.098Z,26.30
2023-05-24T02:25:45.101Z,26.00
2023-05-24T02:28:12.032Z,26.60
2023-05-24T02:30:39.734Z,26.30
2023-05-24T02:33:06.997Z,26.90
2023-05-24T02:35:34.466Z,26.50
2023-05-24T02:38:02.630Z,26.30
2023-05-24T02:40:29.722Z,26.40
2023-05-24T02:42:56.689Z,26.70
2023-05-24T02:45:23.903Z,26.40
2023-05-24T02:47:51.072Z,26.10
2023-05-24T02:50:18.270Z,25.60
2023-05-24T02:52:45.342Z,25.50
2023-05-24T02:55:12.297Z,24.90
2023-05-24T02:57:39.501Z,24.80
2023-05-24T03:00:09.589Z,24.40
2023-05-24T03:02:38.620Z,24.10
2023-05-24T03:05:06.158Z,24.10
2023-05-24T03:07:33.160Z,24.00
2023-05-24T03:10:00.177Z,24.30
2023-05-24T03:12:27.294Z,24.30
2023-05-24T03:14:54.284Z,24.90
2023-05-24T03:17:21.443Z,25.80
2023-05-24T03:19:48.650Z,26.90
2023-05-24T03:22:15.785Z,27.50
2023-05-24T03:24:42.780Z,27.00
2023-05-24T03:27:09.617Z,26.90
2023-05-24T03:29:36.640Z,26.70
2023-05-24T03:32:04.241Z,26.70
2023-05-24T03:34:31.619Z,26.50
2023-05-24T03:36:58.604Z,26.50
2023-05-24T03:39:25.896Z,26.60
2023-05-24T03:41:52.883Z,26.60
2023-05-24T03:44:19.865Z,26.40
2023-05-24T03:46:46.802Z,26.30
2023-05-24T03:49:13.723Z,25.70
2023-05-24T03:51:40.658Z,25.10
2023-05-24T03:54:07.675Z,24.60
2023-05-24T03:56:34.652Z,24.30
2023-05-24T03:59:04.059Z,24.90
2023-05-24T04:01:36.557Z,24.90
2023-05-24T04:04:04.261Z,24.70
2023-05-24T04:06:31.434Z,25.10
2023-05-24T04:08:59.700Z,24.90
2023-05-24T04:11:29.359Z,25.90
2023-05-24T04:13:57.285Z,25.70
2023-05-24T04:16:26.235Z,25.40
2023-05-24T04:18:57.601Z,25.50
2023-05-24T04:21:24.664Z,25.50
2023-05-24T04:23:51.801Z,25.10
2023-05-24T04:26:19.089Z,24.60
2023-05-24T04:28:46.851Z,24.70
2023-05-24T04:31:15.754Z,25.10
2023-05-24T04:33:42.827Z,25.50
2023-05-24T04:36:11.468Z,24.90
2023-05-24T04:38:41.141Z,25.30
2023-05-24T04:41:08.197Z,24.30
2023-05-24T04:43:35.271Z,23.60
2023-05-24T04:46:02.311Z,23.30
2023-05-24T04:48:29.452Z,24.00
2023-05-24T04:50:58.092Z,23.30
2023-05-24T04:53:25.929Z,23.80
2023-05-24T04:55:53.334Z,22.70
2023-05-24T04:58:20.314Z,23.10
2023-05-24T05:00:47.334Z,22.20
2023-05-24T05:03:15.394Z,22.10
2023-05-24T05:05:42.611Z,22.90
2023-05-24T05:08:09.868Z,23.00
2023-05-24T05:10:37.523Z,23.10
2023-05-24T05:13:04.758Z,22.70
2023-05-24T05:15:32.656Z,22.10
2023-05-24T05:17:59.856Z,21.90
2023-05-24T05:20:26.927Z,21.20
2023-05-24T05:22:53.932Z,20.80
2023-05-24T05:25:21.282Z,20.90
2023-05-24T05:27:48.221Z,20.90
2023-05-24T05:30:15.425Z,21.00
2023-05-24T05:32:42.477Z,20.90
2023-05-24T05:35:09.700Z,20.90
2023-05-24T05:37:36.795Z,21.20
2023-05-24T05:40:04.685Z,20.90
2023-05-24T05:42:31.613Z,20.90
2023-05-24T05:44:58.610Z,20.80
2023-05-24T05:47:25.537Z,20.80
2023-05-24T05:49:52.501Z,20.80
2023-05-24T05:52:19.554Z,20.70
2023-05-24T05:54:46.826Z,21.40
2023-05-24T05:57:14.014Z,21.40
2023-05-24T05:59:41.289Z,21.50
2023-05-24T06:02:08.750Z,20.90
2023-05-24T06:04:35.835Z,20.70
2023-05-24T06:07:02.914Z,20.70
2023-05-24T06:09:29.881Z,20.80
2023-05-24T06:11:56.885Z,20.90
2023-05-24T06:14:25.216Z,20.80
2023-05-24T06:16:56.234Z,20.90
2023-05-24T06:19:25.045Z,20.90
2023-05-24T06:21:52.175Z,20.20
2023-05-24T06:24:22.718Z,19.20
2023-05-24T06:26:51.583Z,19.50
2023-05-24T06:29:22.577Z,20.90
2023-05-24T06:31:50.364Z,20.90
2023-05-24T06:34:21.062Z,20.90
2023-05-24T06:36:48.800Z,20.30
2023-05-24T06:39:16.476Z,20.90
2023-05-24T06:41:44.668Z,20.80
2023-05-24T06:44:12.017Z,20.90
2023-05-24T06:46:39.625Z,21.50
2023-05-24T06:49:07.152Z,20.90
2023-05-24T06:51:34.559Z,20.90
2023-05-24T06:54:01.645Z,21.00
2023-05-24T06:56:29.171Z,20.00
2023-05-24T06:58:56.909Z,20.30
2023-05-24T07:01:23.967Z,20.80
2023-05-24T07:03:51.090Z,21.00
2023-05-24T07:06:18.864Z,21.00
2023-05-24T07:08:45.834Z,21.00
2023-05-24T07:11:13.020Z,21.00
2023-05-24T07:13:39.956Z,20.80
2023-05-24T07:16:07.203Z,20.30
2023-05-24T07:18:34.175Z,19.50
2023-05-24T07:21:01.390Z,19.50
2023-05-24T07:23:28.495Z,19.60
2023-05-24T07:25:55.392Z,20.70
2023-05-24T07:28:22.529Z,20.50
2023-05-24T07:30:51.312Z,19.50
2023-05-24T07:33:18.722Z,19.20
2023-05-24T07:35:51.255Z,18.20
2023-05-24T07:38:18.786Z,17.80
2023-05-24T07:40:45.814Z,18.70
2023-05-24T07:43:12.882Z,19.40
2023-05-24T07:45:40.050Z,18.70
2023-05-24T07:48:07.204Z,17.90
2023-05-24T07:50:34.292Z,17.00
2023-05-24T07:53:01.233Z,16.50
2023-05-24T07:55:28.476Z,17.70
2023-05-24T07:57:56.686Z,17.30
2023-05-24T08:00:23.838Z,18.10
2023-05-24T08:02:51.467Z,17.90
2023-05-24T08:05:19.039Z,18.40
2023-05-24T08:07:46.614Z,18.20
2023-05-24T08:10:14.006Z,17.30
2023-05-24T08:12:42.920Z,18.50
2023-05-24T08:15:11.023Z,16.80
2023-05-24T08:17:41.422Z,17.30
2023-05-24T08:20:16.006Z,17.90
2023-05-24T08:22:43.655Z,17.40
2023-05-24T08:25:13.842Z,18.60
2023-05-24T08:27:41.272Z,18.30
2023-05-24T08:30:09.107Z,17.60
2023-05-24T08:32:36.554Z,16.20
2023-05-24T08:35:19.467Z,16.80
2023-05-24T08:37:48.234Z,17.30
2023-05-24T08:40:15.475Z,16.70
2023-05-24T08:42:43.016Z,15.80
2023-05-24T08:45:13.078Z,15.80
2023-05-24T08:47:41.200Z,15.90
2023-05-24T08:50:08.995Z,15.20
2023-05-24T08:52:36.926Z,16.30
2023-05-24T08:55:08.653Z,16.20
2023-05-24T08:57:41.263Z,16.10
2023-05-24T09:00:11.623Z,15.30
2023-05-24T09:02:43.766Z,15.10
2023-05-24T09:05:12.804Z,15.80
2023-05-24T09:07:40.889Z,15.40
2023-05-24T09:10:09.478Z,14.90
2023-05-24T09:12:39.526Z,14.60
2023-05-24T09:15:08.896Z,14.90
2023-05-24T09:17:37.463Z,14.90
2023-05-24T09:20:11.098Z,15.30
2023-05-24T09:22:42.001Z,15.00
2023-05-24T09:25:11.413Z,15.00
2023-05-24T09:27:39.162Z,15.40
2023-05-24T09:30:11.042Z,15.70
2023-05-24T09:32:38.695Z,16.20
2023-05-24T09:35:10.211Z,15.10
2023-05-24T09:37:40.667Z,15.10
2023-05-24T09:40:18.593Z,15.90
2023-05-24T09:42:46.587Z,16.10
2023-05-24T09:45:13.577Z,16.10
2023-05-24T09:47:41.804Z,17.20
2023-05-24T09:50:13.788Z,16.40
2023-05-24T09:52:41.566Z,16.70
2023-05-24T09:55:27.854Z,17.30
2023-05-24T09:58:04.336Z,15.60
2023-05-24T10:00:41.253Z,15.50
2023-05-24T10:03:11.983Z,15.30
2023-05-24T10:05:45.454Z,15.60
2023-05-24T10:08:14.487Z,13.80
2023-05-24T10:10:42.801Z,13.90
2023-05-24T10:13:11.617Z,15.40
2023-05-24T10:15:38.959Z,14.50
2023-05-24T10:18:10.600Z,13.40
2023-05-24T10:20:41.679Z,13.10
2023-05-24T10:23:11.156Z,10.70
2023-05-24T10:25:42.006Z,9.60
2023-05-24T10:28:12.503Z,8.70
2023-05-24T10:31:08.360Z,9.00
2023-05-24T10:33:37.548Z,4.90
2023-05-24T10:36:09.668Z,8.40
2023-05-24T10:38:41.610Z,8.50
2023-05-24T10:41:09.155Z,8.10
2023-05-24T10:43:37.703Z,7.60
2023-05-24T10:46:05.815Z,7.80
2023-05-24T10:48:36.194Z,7.40
2023-05-24T10:51:39.670Z,7.90
2023-05-24T10:54:13.120Z,7.60
2023-05-24T10:56:43.044Z,8.70
2023-05-24T10:59:22.029Z,9.60
2023-05-24T11:01:56.198Z,9.00
2023-05-24T11:04:23.433Z,9.80
2023-05-24T11:07:05.628Z,10.60
2023-05-24T11:09:33.551Z,10.40
2023-05-24T11:12:13.765Z,9.20
2023-05-24T11:14:41.006Z,8.60
2023-05-24T11:17:08.880Z,8.50
2023-05-24T11:19:45.857Z,8.00
2023-05-24T11:22:15.073Z,6.90
2023-05-24T11:24:42.866Z,5.70
2023-05-24T11:27:13.075Z,6.10
2023-05-24T11:29:50.346Z,6.70
2023-05-24T11:32:19.989Z,4.80
2023-05-24T11:34:47.934Z,7.40
2023-05-24T11:37:17.613Z,7.60
2023-05-24T11:39:53.007Z,7.00
2023-05-24T11:42:23.452Z,6.20
2023-05-24T11:44:51.737Z,5.40
2023-05-24T11:47:20.888Z,4.90
2023-05-24T11:49:52.666Z,5.00
2023-05-24T11:52:21.147Z,5.50
2023-05-24T11:54:50.170Z,6.20
2023-05-24T11:57:22.729Z,5.90
2023-05-24T11:59:51.294Z,5.70
2023-05-24T12:02:23.239Z,6.00
2023-05-24T12:04:51.530Z,6.60
2023-05-24T12:07:19.415Z,7.00
2023-05-24T12:09:46.931Z,6.90
2023-05-24T12:12:14.008Z,6.50
2023-05-24T12:14:41.224Z,6.30
2023-05-24T12:17:17.147Z,6.20
2023-05-24T12:19:44.362Z,6.40
2023-05-24T12:22:11.576Z,6.40
2023-05-24T12:24:38.646Z,6.10
2023-05-24T12:27:07.883Z,5.80
2023-05-24T12:29:37.172Z,6.40
2023-05-24T12:32:04.650Z,5.70
2023-05-24T12:34:32.412Z,6.40
2023-05-24T12:37:00.325Z,7.00
2023-05-24T12:39:31.896Z,7.50
2023-05-24T12:42:01.889Z,6.90
2023-05-24T12:44:36.707Z,6.90
2023-05-24T12:47:06.666Z,7.00
2023-05-24T12:49:34.223Z,6.80
2023-05-24T12:52:04.393Z,6.00
2023-05-24T12:54:31.993Z,5.70
2023-05-24T12:57:00.435Z,5.20
2023-05-24T12:59:28.842Z,4.00
2023-05-24T13:01:56.664Z,4.00
2023-05-24T13:04:27.423Z,2.50
2023-05-24T13:06:55.623Z,2.20
2023-05-24T13:09:23.744Z,2.40
2023-05-24T13:11:51.460Z,2.60
2023-05-24T13:14:19.910Z,3.70
2023-05-24T13:16:47.654Z,3.90
2023-05-24T13:19:14.811Z,4.30
2023-05-24T13:21:41.977Z,4.20
2023-05-24T13:24:09.180Z,3.40
2023-05-24T13:26:38.097Z,2.20
2023-05-24T13:31:40.694Z,1.00
2023-05-24T13:34:11.894Z,1.20
2023-05-24T13:36:39.311Z,1.00
2023-05-24T13:41:40.191Z,3.50
2023-05-24T13:44:07.511Z,2.00
2023-05-24T13:46:36.516Z,1.00
2023-05-24T13:49:04.496Z,1.10
2023-05-24T13:51:31.811Z,1.30
2023-05-24T13:53:59.717Z,3.10
2023-05-24T13:56:32.611Z,3.60
2023-05-24T13:59:03.841Z,1.00
2023-05-24T14:01:31.376Z,1.10
2023-05-24T14:03:58.668Z,2.10
2023-05-24T14:06:25.756Z,1.00
2023-05-24T14:08:53.615Z,1.00
2023-05-24T14:11:22.381Z,1.00
2023-05-24T14:16:19.702Z,1.00
2023-05-24T14:18:49.027Z,1.00
2023-05-24T14:21:16.398Z,1.00
2023-05-24T14:23:43.548Z,1.00
2023-05-24T14:26:10.664Z,1.00
2023-05-24T14:28:37.813Z,1.00
2023-05-24T14:31:04.976Z,1.00
2023-05-24T14:33:31.977Z,1.00
2023-05-24T14:35:58.936Z,1.00
2023-05-24T14:38:25.963Z,1.00
2023-05-24T14:40:57.265Z,1.00
2023-05-24T14:43:26.208Z,1.00
2023-05-24T14:45:53.298Z,1.00
2023-05-24T14:48:20.648Z,1.00
2023-05-24T14:50:47.641Z,1.00
2023-05-24T14:53:15.112Z,1.00
2023-05-24T14:55:43.457Z,1.00
2023-05-24T14:58:14.360Z,1.00
2023-05-24T15:00:43.043Z,1.00
2023-05-24T15:03:12.757Z,1.00
2023-05-24T15:05:41.434Z,1.00
2023-05-24T15:08:10.956Z,1.00
2023-05-24T15:10:41.105Z,1.00
2023-05-24T15:13:08.565Z,1.00
2023-05-24T15:15:35.914Z,1.00
2023-05-24T15:18:02.945Z,1.00
2023-05-24T15:20:30.011Z,1.00
2023-05-24T15:22:57.213Z,1.00
2023-05-24T15:25:24.260Z,1.00
2023-05-24T15:27:51.433Z,1.00
2023-05-24T15:30:24.105Z,1.00
2023-05-24T15:32:51.557Z,1.00
2023-05-24T15:35:18.664Z,1.00
2023-05-24T15:37:46.237Z,1.00
2023-05-24T15:40:13.782Z,1.00
2023-05-24T15:42:40.910Z,1.00
2023-05-24T15:45:08.660Z,1.00
2023-05-24T15:47:39.738Z,1.00
2023-05-24T15:50:08.594Z,1.00
2023-05-24T15:52:36.393Z,1.00
2023-05-24T15:55:07.080Z,1.00
2023-05-24T15:57:34.236Z,1.00
2023-05-24T16:00:02.165Z,1.00
2023-05-24T16:02:31.922Z,1.00
2023-05-24T16:04:58.936Z,1.00
2023-05-24T16:07:26.018Z,1.00
2023-05-24T16:09:53.020Z,1.00
2023-05-24T16:12:20.245Z,1.00
2023-05-24T16:14:47.136Z,1.00
2023-05-24T16:17:15.402Z,1.00
2023-05-24T16:19:42.526Z,1.00
2023-05-24T16:22:09.759Z,1.00
2023-05-24T16:24:36.950Z,1.00
2023-05-24T16:27:04.329Z,1.00
2023-05-24T16:29:31.420Z,1.00
2023-05-24T16:31:58.392Z,1.00
2023-05-24T16:34:25.501Z,1.00
2023-05-24T16:36:52.798Z,1.00
2023-05-24T16:39:19.892Z,1.00
2023-05-24T16:41:47.604Z,1.00
2023-05-24T16:44:17.910Z,1.00
2023-05-24T16:46:45.707Z,1.00
2023-05-24T16:49:13.270Z,1.00
2023-05-24T16:51:40.590Z,1.00
2023-05-24T16:54:08.938Z,1.00
2023-05-24T16:56:37.829Z,1.00
2023-05-24T16:59:05.471Z,1.00
2023-05-24T17:01:32.841Z,1.00
2023-05-24T17:04:00.195Z,1.00
2023-05-24T17:06:27.500Z,1.00
2023-05-24T17:08:54.554Z,1.00
2023-05-24T17:11:23.261Z,1.00
2023-05-24T17:13:51.579Z,1.00
2023-05-24T17:16:18.897Z,1.00
2023-05-24T17:18:46.139Z,1.00
2023-05-24T17:21:13.122Z,1.00
2023-05-24T17:23:40.181Z,1.00
2023-05-24T17:26:10.128Z,1.00
2023-05-24T17:28:37.272Z,1.00
2023-05-24T17:31:04.556Z,1.00
2023-05-24T17:33:32.320Z,1.00
2023-05-24T17:36:02.972Z,1.00
2023-05-24T17:38:33.135Z,1.00
2023-05-24T17:41:00.617Z,1.00
2023-05-24T17:43:34.604Z,1.00
2023-05-24T17:46:08.698Z,1.00
2023-05-24T17:48:43.665Z,1.00
2023-05-24T17:51:11.110Z,1.00
2023-05-24T17:53:38.908Z,1.00
2023-05-24T17:56:06.865Z,1.00
2023-05-24T17:58:36.286Z,1.00
2023-05-24T18:01:05.398Z,1.00
2023-05-24T18:03:33.689Z,1.00
2023-05-24T18:06:01.260Z,1.00
2023-05-24T18:08:28.461Z,1.00
2023-05-24T18:10:55.822Z,1.00
2023-05-24T18:13:23.020Z,1.00
2023-05-24T18:15:51.447Z,1.00
2023-05-24T18:18:18.457Z,1.00
2023-05-24T18:20:45.566Z,1.00
2023-05-24T18:23:12.579Z,1.00
2023-05-24T18:25:39.483Z,1.00
2023-05-24T18:28:07.444Z,1.00
2023-05-24T18:30:34.426Z,1.00
2023-05-24T18:33:07.130Z,1.00
2023-05-24T18:35:35.188Z,1.00
2023-05-24T18:38:02.451Z,1.00
2023-05-24T18:40:29.349Z,1.00
2023-05-24T18:42:56.623Z,1.00
2023-05-24T18:45:23.740Z,1.00
2023-05-24T18:47:51.201Z,1.00
2023-05-24T18:50:23.288Z,1.00
2023-05-24T18:52:50.847Z,1.00
2023-05-24T18:55:18.225Z,1.00
2023-05-24T18:57:45.376Z,1.00
2023-05-24T19:00:13.222Z,1.00
2023-05-24T19:02:40.950Z,1.00
2023-05-24T19:05:09.136Z,1.00
2023-05-24T19:07:37.034Z,1.00
2023-05-24T19:10:04.808Z,1.00
2023-05-24T19:12:32.053Z,1.00
2023-05-24T19:15:02.558Z,1.00
2023-05-24T19:17:29.813Z,1.00
2023-05-24T19:19:56.930Z,1.00
2023-05-24T19:22:26.279Z,1.00
2023-05-24T19:24:53.557Z,1.00
2023-05-24T19:27:20.489Z,1.00
2023-05-24T19:29:47.461Z,1.00
2023-05-24T19:32:14.829Z,1.00
2023-05-24T19:34:42.317Z,1.00
2023-05-24T19:37:09.881Z,1.00
2023-05-24T19:39:37.695Z,1.00
2023-05-24T19:42:05.111Z,1.00
2023-05-24T19:44:32.323Z,1.00
2023-05-24T19:46:59.511Z,1.00
2023-05-24T19:49:26.603Z,1.00
2023-05-24T19:51:53.796Z,1.00
2023-05-24T19:54:21.232Z,1.00
2023-05-24T19:56:50.735Z,1.00
2023-05-24T19:59:18.860Z,1.00
2023-05-24T20:01:46.020Z,1.00
2023-05-24T20:04:13.703Z,1.00
2023-05-24T20:06:41.230Z,1.00
2023-05-24T20:09:08.695Z,1.00
2023-05-24T20:11:35.850Z,1.00
2023-05-24T20:14:03.124Z,1.00
2023-05-24T20:16:31.137Z,1.00
2023-05-24T20:18:58.228Z,1.00
2023-05-24T20:21:25.250Z,1.00
2023-05-24T20:23:57.681Z,1.00
2023-05-24T20:26:25.975Z,1.00
2023-05-24T20:28:53.123Z,1.00
2023-05-24T20:31:20.120Z,1.00
2023-05-24T20:33:47.299Z,1.00
2023-05-24T20:36:15.518Z,1.00
2023-05-24T20:38:42.815Z,1.00
2023-05-24T20:41:09.780Z,1.00
2023-05-24T20:43:36.757Z,1.00
2023-05-24T20:46:03.794Z,1.00
2023-05-24T20:48:30.874Z,1.00
2023-05-24T20:50:58.189Z,1.00
2023-05-24T20:53:25.120Z,1.00
2023-05-24T20:55:52.258Z,1.00
2023-05-24T20:58:19.299Z,1.00
2023-05-24T21:00:46.659Z,1.00
2023-05-24T21:03:13.705Z,1.00
2023-05-24T21:05:40.722Z,1.00
2023-05-24T21:08:07.879Z,1.00
2023-05-24T21:10:35.238Z,1.00
2023-05-24T21:13:02.061Z,1.00
2023-05-24T21:15:28.958Z,1.00
2023-05-24T21:17:55.931Z,1.00
2023-05-24T21:20:22.959Z,1.00
2023-05-24T21:22:50.500Z,1.00
2023-05-24T21:25:17.743Z,1.00
2023-05-24T21:27:44.861Z,1.00
2023-05-24T21:30:15.457Z,1.00
2023-05-24T21:32:42.552Z,1.10
2023-05-24T21:35:09.629Z,1.00
2023-05-24T21:37:36.826Z,1.00
2023-05-24T21:40:05.276Z,1.40
2023-05-24T21:42:32.262Z,1.50
2023-05-24T21:44:59.553Z,1.70
2023-05-24T21:47:26.714Z,2.80
2023-05-24T21:49:54.944Z,2.10
2023-05-24T21:52:22.183Z,2.10
2023-05-24T21:54:49.248Z,1.90
2023-05-24T21:57:16.209Z,1.90
2023-05-24T21:59:43.089Z,2.90
2023-05-24T22:02:10.146Z,3.60
2023-05-24T22:04:37.083Z,3.30
2023-05-24T22:07:04.308Z,3.20
2023-05-24T22:09:31.310Z,3.50
2023-05-24T22:11:58.297Z,4.00
2023-05-24T22:14:25.256Z,4.10
2023-05-24T22:16:52.419Z,4.20
2023-05-24T22:19:28.452Z,3.70
2023-05-24T22:21:59.677Z,3.70
2023-05-24T22:24:27.344Z,3.60
2023-05-24T22:26:55.889Z,3.60
2023-05-24T22:29:22.920Z,3.20
2023-05-24T22:31:49.862Z,2.60
2023-05-24T22:34:26.596Z,2.70
2023-05-24T22:36:53.673Z,2.70
2023-05-24T22:39:20.770Z,2.50
2023-05-24T22:41:47.764Z,2.40
2023-05-24T22:44:14.832Z,2.80
2023-05-24T22:46:41.983Z,2.90
2023-05-24T22:49:13.283Z,3.30
2023-05-24T22:51:44.516Z,3.40
2023-05-24T22:54:11.819Z,4.30
2023-05-24T22:56:39.152Z,4.70
2023-05-24T22:59:07.080Z,4.70
2023-05-24T23:01:34.460Z,4.70
2023-05-24T23:04:15.853Z,4.40
2023-05-24T23:06:47.269Z,4.50
2023-05-24T23:09:14.403Z,5.40
2023-05-24T23:11:43.041Z,4.90
2023-05-24T23:14:11.087Z,5.20
2023-05-24T23:16:40.310Z,6.20
2023-05-24T23:19:07.328Z,5.30
2023-05-24T23:21:37.000Z,5.10
2023-05-24T23:24:05.182Z,4.90
2023-05-24T23:26:32.170Z,5.60
2023-05-24T23:28:59.331Z,4.20
2023-05-24T23:31:26.375Z,4.00
2023-05-24T23:33:53.413Z,4.00
2023-05-24T23:36:20.483Z,3.90
2023-05-24T23:38:47.383Z,3.80
2023-05-24T23:41:14.305Z,3.60
2023-05-24T23:43:41.280Z,3.10
2023-05-24T23:46:08.238Z,3.10
2023-05-24T23:48:35.211Z,3.00
2023-05-24T23:51:04.462Z,2.90
2023-05-24T23:53:31.444Z,2.90
2023-05-24T23:55:58.353Z,2.80
2023-05-24T23:58:25.661Z,2.80
